METAR Data
IDs: Format: Raw Decoded Include TAF

Data at: 1234 UTC 19 Feb 2020

METAR for:KHCR (Heber City Muni, UT, US)
Text:KHCR 191210Z AUTO 00000KT 10SM CLR M10/M14 A3018 RMK AO2
Temperature:-10.0°C ( 14°F)
Dewpoint:-14.0°C ( 7°F) [RH = 72%]
Pressure (altimeter):30.18 inches Hg (1022.1 mb)
Winds:calm
Visibility:10 or more sm (16+ km)
Ceiling:at least 12,000 feet AGL
Clouds:sky clear below 12,000 feet AGL
QC Flag:automated observation with no human augmentation